This is the latest recevied weather packets stored in our database for station/object IU2EVW-13. If no packets are shown the sender has not sent any weather packets the latest 10 day(s).
| Time | Temp. | Humidity | Pressure | Rain* | Wind** | Luminosity | Snow |
|---|---|---|---|---|---|---|---|
| 1787826248 | 25° C | 52% | 1021 hPa | - | - | - | - |
| 1787825047 | 23.89° C | 58% | 1021.3 hPa | - | - | - | - |
| 1787823846 | 22.78° C | 60% | 1021.3 hPa | - | - | - | - |
| 1787822644 | 22.22° C | 59% | 1021.5 hPa | - | - | - | - |
| 1787821443 | 22.22° C | 61% | 1021.8 hPa | - | - | - | - |
| 1787820242 | 21.67° C | 63% | 1021.7 hPa | - | - | - | - |
| 1787819041 | 21.11° C | 68% | 1022 hPa | - | - | - | - |
| 1787817839 | 20° C | 70% | 1022.1 hPa | - | - | - | - |
| 1787816638 | 19.44° C | 71% | 1022.3 hPa | - | - | - | - |
| 1787815437 | 20° C | 70% | 1022 hPa | - | - | - | - |
| 1787814235 | 19.44° C | 71% | 1021.8 hPa | - | - | - | - |
| 1787813034 | 18.89° C | 74% | 1021.7 hPa | - | - | - | - |
| 1787811833 | 18.89° C | 73% | 1021.9 hPa | - | - | - | - |
| 1787810632 | 18.89° C | 73% | 1022 hPa | - | - | - | - |
| 1787809430 | 18.89° C | 73% | 1021.9 hPa | - | - | - | - |
| 1787808229 | 18.33° C | 73% | 1021.9 hPa | - | - | - | - |
| 1787807028 | 17.78° C | 75% | 1021.8 hPa | - | - | - | - |
| 1787805827 | 18.33° C | 72% | 1021.8 hPa | - | - | - | - |
| 1787804625 | 18.33° C | 73% | 1021.7 hPa | - | - | - | - |
| 1787803424 | 18.33° C | 72% | 1021.7 hPa | - | - | - | - |
| 1787802223 | 18.33° C | 72% | 1021.4 hPa | - | - | - | - |
| 1787801022 | 18.33° C | 72% | 1021.6 hPa | - | - | - | - |
| 1787799820 | 18.89° C | 72% | 1021.4 hPa | - | - | - | - |
| 1787798619 | 18.33° C | 73% | 1021.4 hPa | - | - | - | - |
| 1787797418 | 18.33° C | 72% | 1021.4 hPa | - | - | - | - |
* Rain since midnight (hover to see other rain measurements)
** Current wind speed in m/s (hover to see current wind gust speed)